createdAt,value
2022-08-04T00:00:38.509Z,65.42
2022-08-04T00:02:07.511Z,65.23
2022-08-04T00:03:36.498Z,65.03
2022-08-04T00:05:34.520Z,65.06
2022-08-04T00:07:03.509Z,64.96
2022-08-04T00:09:01.602Z,65.06
2022-08-04T00:10:30.591Z,64.76
2022-08-04T00:12:31.204Z,64.76
2022-08-04T00:14:03.060Z,64.76
2022-08-04T00:15:27.774Z,64.67
2022-08-04T00:16:57.017Z,64.56
2022-08-04T00:18:26.015Z,64.14
2022-08-04T00:19:54.988Z,64.34
2022-08-04T00:21:53.025Z,64.53
2022-08-04T00:23:21.972Z,64.43
2022-08-04T00:24:50.962Z,64.27
2022-08-04T00:26:20.017Z,64.56
2022-08-04T00:27:49.115Z,64.47
2022-08-04T00:29:18.071Z,64.56
2022-08-04T00:30:47.066Z,64.56
2022-08-04T00:34:41.516Z,64.47
2022-08-04T00:36:10.484Z,64.47
2022-08-04T00:37:39.503Z,64.47
2022-08-04T00:39:08.583Z,64.27
2022-08-04T00:41:06.481Z,63.97
2022-08-04T00:42:37.599Z,63.97
2022-08-04T00:44:36.368Z,64.17
2022-08-04T00:47:01.953Z,64.07
2022-08-04T00:48:30.967Z,63.97
2022-08-04T00:49:59.985Z,64.17
2022-08-04T00:52:31.964Z,64.07
2022-08-04T00:53:57.062Z,63.87
2022-08-04T00:55:26.032Z,63.87
2022-08-04T00:56:55.189Z,63.97
2022-08-04T00:58:53.315Z,64.17
2022-08-04T01:00:51.623Z,63.37
2022-08-04T01:03:18.669Z,63.57
2022-08-04T01:04:47.640Z,63.77
2022-08-04T01:06:16.739Z,63.87
2022-08-04T01:07:45.808Z,63.48
2022-08-04T01:10:41.914Z,63.97
2022-08-04T01:12:10.957Z,63.77
2022-08-04T01:14:08.970Z,63.37
2022-08-04T01:19:01.144Z,63.48
2022-08-04T01:23:54.001Z,63.28
2022-08-04T01:26:57.508Z,63.37
2022-08-04T01:28:20.175Z,63.37
2022-08-04T01:30:47.270Z,63.77
2022-08-04T01:32:16.622Z,63.67
2022-08-04T01:34:03.120Z,63.48
2022-08-04T01:35:21.663Z,63.48
2022-08-04T01:40:09.168Z,64.30
2022-08-04T01:42:36.284Z,64.20
2022-08-04T01:45:32.297Z,64.10
2022-08-04T01:47:59.354Z,64.30
2022-08-04T01:49:57.645Z,64.10
2022-08-04T01:51:26.697Z,64.07
2022-08-04T01:54:22.927Z,64.00
2022-08-04T01:57:37.119Z,64.20
2022-08-04T02:00:15.973Z,64.30
2022-08-04T02:02:43.320Z,63.90
2022-08-04T02:04:20.776Z,63.70
2022-08-04T02:08:36.294Z,63.40
2022-08-04T02:11:03.318Z,63.21
2022-08-04T02:13:30.475Z,63.01
2022-08-04T02:14:59.655Z,62.98
2022-08-04T02:17:28.808Z,63.18
2022-08-04T02:21:22.905Z,62.91
2022-08-04T02:22:52.749Z,63.01
2022-08-04T02:27:15.022Z,63.10
2022-08-04T02:28:44.581Z,63.31
2022-08-04T02:30:13.028Z,63.01
2022-08-04T02:33:10.297Z,62.81
2022-08-04T02:35:08.251Z,62.91
2022-08-04T02:36:37.291Z,62.81
2022-08-04T02:38:35.302Z,62.71
2022-08-04T02:40:04.440Z,62.81
2022-08-04T02:44:33.415Z,63.10
2022-08-04T02:46:02.385Z,63.21
2022-08-04T02:48:19.401Z,63.40
2022-08-04T02:49:33.616Z,63.43
2022-08-04T02:50:59.877Z,63.54
2022-08-04T02:52:28.913Z,63.34
2022-08-04T02:54:32.625Z,63.24
2022-08-04T02:56:26.694Z,63.73
2022-08-04T02:58:54.061Z,63.93
2022-08-04T03:00:52.110Z,63.93
2022-08-04T03:02:21.091Z,63.73
2022-08-04T03:03:50.171Z,63.54
2022-08-04T03:05:19.175Z,63.73
2022-08-04T03:08:08.155Z,64.03
2022-08-04T03:09:37.156Z,64.13
2022-08-04T03:12:04.522Z,63.93
2022-08-04T03:15:00.955Z,64.23
2022-08-04T03:16:31.225Z,64.23
2022-08-04T03:18:28.040Z,63.93
2022-08-04T03:20:55.476Z,64.33
2022-08-04T03:23:22.604Z,64.95
2022-08-04T03:26:19.390Z,64.56
2022-08-04T03:29:15.800Z,64.53
2022-08-04T03:30:45.754Z,64.03
2022-08-04T03:32:14.731Z,64.13
2022-08-04T03:33:43.954Z,64.23
2022-08-04T03:35:13.455Z,64.23
2022-08-04T03:37:10.879Z,64.43
2022-08-04T03:39:08.952Z,64.33
2022-08-04T03:41:06.936Z,64.43
2022-08-04T03:42:35.955Z,64.33
2022-08-04T03:44:05.349Z,64.62
2022-08-04T03:45:34.041Z,64.23
2022-08-04T03:47:32.114Z,64.43
2022-08-04T03:49:59.343Z,64.62
2022-08-04T03:52:55.432Z,64.76
2022-08-04T03:54:53.432Z,64.56
2022-08-04T03:57:50.002Z,64.56
2022-08-04T03:59:18.755Z,64.62
2022-08-04T04:01:16.970Z,64.76
2022-08-04T04:04:14.204Z,64.76
2022-08-04T04:06:40.701Z,64.95
2022-08-04T04:09:08.117Z,64.86
2022-08-04T04:10:37.964Z,64.86
2022-08-04T04:12:36.016Z,64.86
2022-08-04T04:15:04.242Z,64.86
2022-08-04T04:17:01.487Z,64.95
2022-08-04T04:18:59.699Z,64.95
2022-08-04T04:20:28.222Z,64.86
2022-08-04T04:21:57.191Z,64.86
2022-08-04T04:23:26.171Z,64.86
2022-08-04T04:24:55.236Z,64.86
2022-08-04T04:26:24.234Z,64.92
2022-08-04T04:29:20.425Z,64.76
2022-08-04T04:30:49.337Z,64.73
2022-08-04T04:32:18.326Z,64.76
2022-08-04T04:33:47.318Z,64.83
2022-08-04T04:35:45.347Z,65.16
2022-08-04T04:38:12.866Z,64.95
2022-08-04T04:39:41.948Z,65.06
2022-08-04T04:41:10.939Z,64.95
2022-08-04T04:43:08.952Z,65.06
2022-08-04T04:44:37.982Z,65.06
2022-08-04T04:47:05.077Z,65.12
2022-08-04T04:50:02.135Z,65.12
2022-08-04T04:51:31.141Z,65.12
2022-08-04T04:53:29.293Z,65.32
2022-08-04T04:55:27.291Z,65.32
2022-08-04T04:56:56.265Z,65.12
2022-08-04T04:58:25.559Z,65.12
2022-08-04T05:00:52.886Z,65.12
2022-08-04T05:03:19.854Z,65.12
2022-08-04T05:09:10.108Z,65.22
2022-08-04T05:14:37.707Z,65.12
2022-08-04T05:17:29.349Z,65.12
2022-08-04T05:18:58.419Z,65.02
2022-08-04T05:20:27.467Z,65.02
2022-08-04T05:23:52.540Z,64.92
2022-08-04T05:25:21.586Z,65.02
2022-08-04T05:26:50.604Z,65.02
2022-08-04T05:31:14.216Z,64.70
2022-08-04T05:32:43.255Z,64.79
2022-08-04T05:34:12.258Z,64.59
2022-08-04T05:36:18.618Z,64.59
2022-08-04T05:37:40.501Z,64.50
2022-08-04T05:39:38.942Z,64.50
2022-08-04T05:42:35.291Z,64.50
2022-08-04T05:45:38.909Z,64.59
2022-08-04T05:47:59.629Z,64.70
2022-08-04T05:50:01.868Z,64.79
2022-08-04T05:51:56.055Z,64.89
2022-08-04T05:54:24.612Z,64.79
2022-08-04T05:57:20.861Z,64.50
2022-08-04T05:59:47.718Z,64.50
2022-08-04T06:01:17.092Z,64.59
2022-08-04T06:03:15.104Z,64.59
2022-08-04T06:04:44.146Z,64.70
2022-08-04T06:06:42.417Z,64.56
2022-08-04T06:08:40.418Z,64.79
2022-08-04T06:10:09.484Z,64.89
2022-08-04T06:12:08.552Z,64.47
2022-08-04T06:13:49.688Z,64.56
2022-08-04T06:17:04.517Z,64.43
2022-08-04T06:19:58.917Z,64.63
2022-08-04T06:20:19.125Z,64.43
2022-08-04T06:23:02.748Z,64.11
2022-08-04T06:25:58.020Z,64.01
2022-08-04T06:29:51.367Z,64.40
2022-08-04T06:34:36.969Z,64.60
2022-08-04T06:36:05.934Z,64.40
2022-08-04T06:37:42.439Z,64.31
2022-08-04T06:39:34.100Z,63.61
2022-08-04T06:41:03.161Z,63.61
2022-08-04T06:43:30.825Z,63.78
2022-08-04T06:44:59.781Z,63.68
2022-08-04T06:47:26.779Z,63.58
2022-08-04T06:48:55.742Z,63.45
2022-08-04T06:51:35.548Z,63.25
2022-08-04T06:52:53.070Z,63.15
2022-08-04T06:54:22.178Z,63.25
2022-08-04T06:55:51.159Z,63.35
2022-08-04T07:00:14.345Z,62.96
2022-08-04T07:01:43.402Z,62.96
2022-08-04T07:03:41.391Z,63.45
2022-08-04T07:05:39.651Z,64.24
2022-08-04T07:10:03.040Z,63.55
2022-08-04T07:12:30.771Z,63.82
2022-08-04T07:14:57.402Z,64.01
2022-08-04T07:16:55.423Z,63.71
2022-08-04T07:18:53.421Z,63.71
2022-08-04T07:20:51.516Z,63.52
2022-08-04T07:22:25.301Z,63.32
2022-08-04T07:23:50.501Z,63.09
2022-08-04T07:25:19.544Z,63.19
2022-08-04T07:26:53.279Z,62.79
2022-08-04T07:29:20.081Z,62.10
2022-08-04T07:30:49.047Z,61.98
2022-08-04T07:32:18.054Z,61.98
2022-08-04T07:35:34.499Z,61.58
2022-08-04T07:38:11.727Z,61.05
2022-08-04T07:40:38.824Z,60.96
2022-08-04T07:42:37.392Z,61.42
2022-08-04T07:44:06.142Z,60.83
2022-08-04T07:46:04.725Z,60.73
2022-08-04T07:47:33.708Z,60.73
2022-08-04T07:50:00.843Z,60.31
2022-08-04T07:51:29.944Z,59.71
2022-08-04T07:53:55.261Z,59.29
2022-08-04T07:54:58.119Z,59.09
2022-08-04T07:56:27.147Z,59.39
2022-08-04T07:57:57.724Z,58.67
2022-08-04T08:00:52.821Z,58.20
2022-08-04T08:02:22.236Z,58.57
2022-08-04T08:04:20.686Z,58.47
2022-08-04T08:06:32.606Z,58.77
2022-08-04T08:08:17.861Z,57.98
2022-08-04T08:09:46.830Z,58.37
2022-08-04T08:12:35.882Z,57.68
2022-08-04T08:14:42.205Z,56.99
2022-08-04T08:16:11.242Z,56.50
2022-08-04T08:20:29.466Z,56.67
2022-08-04T08:22:15.639Z,57.46
2022-08-04T08:25:12.903Z,58.45
2022-08-04T08:26:41.929Z,58.64
2022-08-04T08:28:39.964Z,57.06
2022-08-04T08:30:08.948Z,57.46
2022-08-04T08:32:09.040Z,57.36
2022-08-04T08:33:36.929Z,57.06
2022-08-04T08:35:35.373Z,57.46
2022-08-04T08:37:05.356Z,57.65
2022-08-04T08:40:01.629Z,56.87
2022-08-04T08:42:00.005Z,57.63
2022-08-04T08:44:58.090Z,56.25
2022-08-04T08:46:48.118Z,56.45
2022-08-04T08:48:24.634Z,57.21
2022-08-04T08:50:01.835Z,57.21
2022-08-04T08:52:13.063Z,56.32
2022-08-04T08:55:29.001Z,56.62
2022-08-04T08:58:00.118Z,56.22
2022-08-04T08:59:53.937Z,55.73
2022-08-04T09:01:22.978Z,55.90
2022-08-04T09:03:03.957Z,57.08
2022-08-04T09:04:23.242Z,57.48
2022-08-04T09:07:18.199Z,56.10
2022-08-04T09:10:43.277Z,56.69
2022-08-04T09:12:41.323Z,56.88
2022-08-04T09:14:10.330Z,57.87
2022-08-04T09:15:39.474Z,57.57
2022-08-04T09:17:08.468Z,57.77
2022-08-04T09:19:37.783Z,58.65
2022-08-04T09:21:04.478Z,58.16
2022-08-04T09:23:02.522Z,58.16
2022-08-04T09:25:00.805Z,58.06
2022-08-04T09:27:28.146Z,57.77
2022-08-04T09:29:26.549Z,57.28
2022-08-04T09:31:24.839Z,57.37
2022-08-04T09:35:04.499Z,58.92
2022-08-04T09:36:49.298Z,57.64
2022-08-04T09:38:51.761Z,57.74
2022-08-04T09:40:53.417Z,57.35
2022-08-04T09:42:16.274Z,56.56
2022-08-04T09:44:43.133Z,57.45
2022-08-04T09:45:22.481Z,56.56
2022-08-04T09:47:14.510Z,57.32
2022-08-04T09:48:43.491Z,57.03
2022-08-04T09:50:12.468Z,56.04
2022-08-04T09:53:08.716Z,57.12
2022-08-04T09:54:37.698Z,56.21
2022-08-04T09:59:31.262Z,55.72
2022-08-04T10:01:29.291Z,56.11
2022-08-04T10:03:56.341Z,55.94
2022-08-04T10:05:25.360Z,54.96
2022-08-04T10:07:24.181Z,56.04
2022-08-04T10:10:49.266Z,55.55
2022-08-04T10:12:18.240Z,55.75
2022-08-04T10:13:47.240Z,55.72
2022-08-04T10:15:45.256Z,55.23
2022-08-04T10:17:14.244Z,54.32
2022-08-04T10:18:43.193Z,54.52
2022-08-04T10:20:12.193Z,54.52
2022-08-04T10:23:55.644Z,54.81
2022-08-04T10:28:31.283Z,55.66
2022-08-04T10:30:58.377Z,54.78
2022-08-04T10:33:55.235Z,55.66
2022-08-04T10:35:24.216Z,54.29
2022-08-04T10:36:53.241Z,55.37
2022-08-04T10:38:26.806Z,54.78
2022-08-04T10:39:51.636Z,54.19
2022-08-04T10:42:18.685Z,54.39
2022-08-04T10:43:47.579Z,55.18
2022-08-04T10:45:16.597Z,54.68
2022-08-04T10:47:14.621Z,54.29
2022-08-04T10:51:14.163Z,54.17
2022-08-04T10:52:43.186Z,53.87
2022-08-04T10:54:12.218Z,52.80
2022-08-04T10:59:04.720Z,52.11
2022-08-04T11:02:29.955Z,51.12
2022-08-04T11:05:26.464Z,51.79
2022-08-04T11:07:30.237Z,51.49
2022-08-04T11:10:37.097Z,49.60
2022-08-04T11:12:06.136Z,51.07
2022-08-04T11:14:04.308Z,50.78
2022-08-04T11:15:33.373Z,51.17
2022-08-04T11:17:02.687Z,50.20
2022-08-04T11:19:00.820Z,50.09
2022-08-04T11:20:35.542Z,50.20
2022-08-04T11:22:29.111Z,51.64
2022-08-04T11:24:56.516Z,50.59
2022-08-04T11:29:20.061Z,51.27
2022-08-04T11:33:43.209Z,51.96
2022-08-04T11:35:41.234Z,51.69
2022-08-04T11:37:14.030Z,51.98
2022-08-04T11:40:06.879Z,52.01
2022-08-04T11:41:36.098Z,52.01
2022-08-04T11:43:05.123Z,52.30
2022-08-04T11:44:10.423Z,52.89
2022-08-04T11:45:06.065Z,53.19
2022-08-04T11:46:34.326Z,52.69
2022-08-04T11:48:03.416Z,53.21
2022-08-04T11:50:01.515Z,53.50
2022-08-04T11:52:00.765Z,53.92
2022-08-04T11:53:36.520Z,54.02
2022-08-04T11:55:28.481Z,55.10
2022-08-04T11:57:35.445Z,57.36
2022-08-04T11:59:55.170Z,61.13
2022-08-04T12:01:24.178Z,61.74
2022-08-04T12:04:03.469Z,62.13
2022-08-04T12:06:56.740Z,64.56
2022-08-04T12:08:48.152Z,66.23
2022-08-04T12:10:46.197Z,66.36
2022-08-04T12:16:08.773Z,67.74
2022-08-04T12:17:52.351Z,67.84
2022-08-04T12:20:41.097Z,68.53
2022-08-04T12:22:06.439Z,68.66
2022-08-04T12:24:04.547Z,68.86
2022-08-04T12:27:01.172Z,70.08
2022-08-04T12:29:14.584Z,70.81
2022-08-04T12:31:27.745Z,71.40
2022-08-04T12:35:22.161Z,71.50
2022-08-04T12:37:22.108Z,71.53
2022-08-04T12:41:14.427Z,72.22
2022-08-04T12:42:59.351Z,72.72
2022-08-04T12:44:36.432Z,72.82
2022-08-04T12:47:27.160Z,72.52
2022-08-04T12:49:39.136Z,72.52
2022-08-04T12:51:08.117Z,72.13
2022-08-04T12:53:00.928Z,71.93
2022-08-04T12:54:08.104Z,72.22
2022-08-04T12:55:37.218Z,71.93
2022-08-04T12:59:02.233Z,71.93
2022-08-04T13:02:08.453Z,71.73
2022-08-04T13:02:59.621Z,72.13
2022-08-04T13:04:57.629Z,71.37
2022-08-04T13:07:25.027Z,72.36
2022-08-04T13:09:22.720Z,72.16
2022-08-04T13:11:49.876Z,72.96
2022-08-04T13:13:18.958Z,72.86
2022-08-04T13:14:48.195Z,73.28
2022-08-04T13:16:17.098Z,73.38
2022-08-04T13:19:13.415Z,73.49
2022-08-04T13:21:19.378Z,73.28
2022-08-04T13:22:46.285Z,73.28
2022-08-04T13:26:42.739Z,72.89
2022-08-04T13:27:16.324Z,72.69
2022-08-04T13:28:42.918Z,72.79
2022-08-04T13:30:10.587Z,72.20
2022-08-04T13:30:25.367Z,73.19
2022-08-04T13:32:08.577Z,72.09
2022-08-04T13:33:37.532Z,72.06
2022-08-04T13:35:06.770Z,71.67
2022-08-04T13:37:04.466Z,71.77
2022-08-04T13:39:32.295Z,71.97
2022-08-04T13:41:31.243Z,71.47
2022-08-04T13:42:58.649Z,71.14
2022-08-04T13:44:27.619Z,71.04
2022-08-04T13:45:56.635Z,70.61
2022-08-04T13:47:54.930Z,70.41
2022-08-04T13:50:09.799Z,69.62
2022-08-04T13:51:23.309Z,69.72
2022-08-04T13:53:51.134Z,68.13
2022-08-04T13:55:20.124Z,67.87
2022-08-04T13:56:49.525Z,68.43
2022-08-04T13:58:18.222Z,68.93
2022-08-04T13:59:47.189Z,69.02
2022-08-04T14:02:14.206Z,68.83
2022-08-04T14:03:53.828Z,69.12
2022-08-04T14:05:59.192Z,69.02
2022-08-04T14:07:26.422Z,69.02
2022-08-04T14:09:40.505Z,69.23
2022-08-04T14:11:10.470Z,69.23
2022-08-04T14:12:46.144Z,69.12
2022-08-04T14:15:08.842Z,69.16
2022-08-04T14:16:37.418Z,69.16
2022-08-04T14:18:35.403Z,69.26
2022-08-04T14:20:04.438Z,69.35
2022-08-04T14:21:33.396Z,69.75
2022-08-04T14:23:02.743Z,70.05
2022-08-04T14:25:35.319Z,69.35
2022-08-04T14:26:59.666Z,69.56
2022-08-04T14:29:25.204Z,69.65
2022-08-04T14:30:27.742Z,69.35
2022-08-04T14:31:59.518Z,69.35
2022-08-04T14:34:01.384Z,69.16
2022-08-04T14:36:23.032Z,68.86
2022-08-04T14:37:51.979Z,68.86
2022-08-04T14:40:08.885Z,69.02
2022-08-04T14:41:19.972Z,69.23
2022-08-04T14:42:54.359Z,69.12
2022-08-04T14:45:54.356Z,68.24
2022-08-04T14:48:15.004Z,67.35
2022-08-04T14:49:43.972Z,67.44
2022-08-04T14:51:46.274Z,66.85
2022-08-04T14:53:15.220Z,66.75
2022-08-04T14:56:47.744Z,65.66
2022-08-04T14:58:33.800Z,65.77
2022-08-04T14:59:40.434Z,66.16
2022-08-04T15:01:11.504Z,65.73
2022-08-04T15:03:50.425Z,65.73
2022-08-04T15:05:55.389Z,65.73
2022-08-04T15:06:41.493Z,65.14
2022-08-04T15:08:39.040Z,64.84
2022-08-04T15:11:38.969Z,64.54
2022-08-04T15:13:05.828Z,65.11
2022-08-04T15:14:37.671Z,64.71
2022-08-04T15:16:08.147Z,65.60
2022-08-04T15:18:31.560Z,64.61
2022-08-04T15:20:00.839Z,64.18
2022-08-04T15:21:30.175Z,63.99
2022-08-04T15:23:37.236Z,63.59
2022-08-04T15:24:59.633Z,63.53
2022-08-04T15:26:33.890Z,63.82
2022-08-04T15:29:00.613Z,64.22
2022-08-04T15:30:29.577Z,64.61
2022-08-04T15:32:56.600Z,63.82
2022-08-04T15:34:25.619Z,64.12
2022-08-04T15:35:54.566Z,63.82
2022-08-04T15:38:21.584Z,63.23
2022-08-04T15:39:51.837Z,63.13
2022-08-04T15:44:14.881Z,64.48
2022-08-04T15:46:41.999Z,63.89
2022-08-04T15:47:49.972Z,63.99
2022-08-04T15:49:12.983Z,64.09
2022-08-04T15:50:41.994Z,64.39
2022-08-04T15:53:12.429Z,63.40
2022-08-04T15:54:38.391Z,62.60
2022-08-04T15:56:07.057Z,61.13
2022-08-04T15:58:05.077Z,62.31
2022-08-04T15:59:53.991Z,61.62
2022-08-04T16:02:10.794Z,61.52
2022-08-04T16:03:59.262Z,60.14
2022-08-04T16:05:50.584Z,60.73
2022-08-04T16:07:19.331Z,61.19
2022-08-04T16:09:17.278Z,60.60
2022-08-04T16:10:46.273Z,60.31
2022-08-04T16:12:27.164Z,60.21
2022-08-04T16:16:40.277Z,58.43
2022-08-04T16:19:36.985Z,58.92
2022-08-04T16:21:35.175Z,59.81
2022-08-04T16:23:53.197Z,62.18
2022-08-04T16:25:54.523Z,58.92
2022-08-04T16:27:52.581Z,60.31
2022-08-04T16:29:21.612Z,59.98
2022-08-04T16:32:47.220Z,59.91
2022-08-04T16:34:49.261Z,59.39
2022-08-04T16:35:46.171Z,59.39
2022-08-04T16:37:45.057Z,60.28
2022-08-04T16:40:12.113Z,58.80
2022-08-04T16:42:10.062Z,58.70
2022-08-04T16:44:52.854Z,58.11
2022-08-04T16:46:15.809Z,58.11
2022-08-04T16:48:35.322Z,57.74
2022-08-04T16:50:33.293Z,58.63
2022-08-04T16:52:31.612Z,57.84
2022-08-04T16:54:04.568Z,57.74
2022-08-04T16:55:29.526Z,57.64
2022-08-04T16:57:56.795Z,57.34
2022-08-04T16:59:54.833Z,57.54
2022-08-04T17:01:53.391Z,58.16
2022-08-04T17:03:56.103Z,57.67
2022-08-04T17:07:46.830Z,57.47
2022-08-04T17:09:15.985Z,57.18
2022-08-04T17:10:44.953Z,57.47
2022-08-04T17:12:13.983Z,57.47
2022-08-04T17:14:11.945Z,58.06
2022-08-04T17:16:39.009Z,57.07
2022-08-04T17:18:08.022Z,56.48
2022-08-04T17:19:37.183Z,56.78
2022-08-04T17:21:35.310Z,56.98
2022-08-04T17:23:05.093Z,57.28
2022-08-04T17:24:34.479Z,56.48
2022-08-04T17:27:01.922Z,57.37
2022-08-04T17:28:39.959Z,57.47
2022-08-04T17:30:01.379Z,56.81
2022-08-04T17:31:59.247Z,57.01
2022-08-04T17:33:58.220Z,57.70
2022-08-04T17:38:51.671Z,57.50
2022-08-04T17:40:25.298Z,57.89
2022-08-04T17:41:49.991Z,57.97
2022-08-04T17:44:03.431Z,57.97
2022-08-04T17:45:53.790Z,57.37
2022-08-04T17:47:17.517Z,57.57
2022-08-04T17:48:46.568Z,57.57
2022-08-04T17:50:44.887Z,57.60
2022-08-04T17:52:27.494Z,57.50
2022-08-04T17:54:02.398Z,56.91
2022-08-04T17:55:42.721Z,57.70
2022-08-04T17:58:13.538Z,57.50
2022-08-04T17:59:49.608Z,56.41
2022-08-04T18:01:52.152Z,57.01
2022-08-04T18:03:22.730Z,56.91
2022-08-04T18:06:02.023Z,57.10
2022-08-04T18:08:40.214Z,56.91
2022-08-04T18:11:11.873Z,57.13
2022-08-04T18:13:15.374Z,57.03
2022-08-04T18:15:14.202Z,57.13
2022-08-04T18:18:21.161Z,57.23
2022-08-04T18:20:39.413Z,57.13
2022-08-04T18:22:37.430Z,56.57
2022-08-04T18:24:08.776Z,56.57
2022-08-04T18:25:51.072Z,56.86
2022-08-04T18:28:10.786Z,56.86
2022-08-04T18:29:38.989Z,56.96
2022-08-04T18:34:02.707Z,57.29
2022-08-04T18:36:36.808Z,57.18
2022-08-04T18:37:03.073Z,57.58
2022-08-04T18:41:51.543Z,57.88
2022-08-04T18:43:41.178Z,58.18
2022-08-04T18:44:59.688Z,58.18
2022-08-04T18:46:57.010Z,58.28
2022-08-04T18:48:36.056Z,58.20
2022-08-04T18:51:00.804Z,58.70
2022-08-04T18:51:30.888Z,58.70
2022-08-04T18:52:57.293Z,58.20
2022-08-04T18:54:26.318Z,58.40
2022-08-04T18:56:29.905Z,59.00
2022-08-04T18:58:01.250Z,58.50
2022-08-04T18:59:46.677Z,58.50
2022-08-04T19:01:29.580Z,58.40
2022-08-04T19:03:57.638Z,59.12
2022-08-04T19:06:25.971Z,58.92
2022-08-04T19:08:01.855Z,58.92
2022-08-04T19:09:25.059Z,59.22
2022-08-04T19:10:54.250Z,58.53
2022-08-04T19:12:26.965Z,58.83
2022-08-04T19:14:24.630Z,59.05
2022-08-04T19:16:21.145Z,58.92
2022-08-04T19:17:57.311Z,59.05
2022-08-04T19:19:20.927Z,59.05
2022-08-04T19:22:02.717Z,59.25
2022-08-04T19:24:30.140Z,58.95
2022-08-04T19:26:02.450Z,59.25
2022-08-04T19:27:00.952Z,58.95
2022-08-04T19:28:59.267Z,59.65
2022-08-04T19:30:30.544Z,59.78
2022-08-04T19:33:59.544Z,60.17
2022-08-04T19:36:00.000Z,59.88
2022-08-04T19:38:03.738Z,60.07
2022-08-04T19:40:33.751Z,60.37
2022-08-04T19:44:44.467Z,60.27
2022-08-04T19:46:38.522Z,60.47
2022-08-04T19:48:17.287Z,60.86
2022-08-04T19:50:35.030Z,61.10
2022-08-04T19:53:37.709Z,61.19
2022-08-04T19:55:10.115Z,61.19
2022-08-04T19:56:40.413Z,61.29
2022-08-04T19:59:32.363Z,61.59
2022-08-04T20:01:55.690Z,61.59
2022-08-04T20:04:22.700Z,61.49
2022-08-04T20:07:18.941Z,61.49
2022-08-04T20:08:48.895Z,61.69
2022-08-04T20:10:17.111Z,62.12
2022-08-04T20:11:47.108Z,61.82
2022-08-04T20:15:14.178Z,62.31
2022-08-04T20:16:42.191Z,61.82
2022-08-04T20:18:35.878Z,62.21
2022-08-04T20:20:10.224Z,61.91
2022-08-04T20:21:55.400Z,61.52
2022-08-04T20:23:48.162Z,61.82
2022-08-04T20:25:38.933Z,62.12
2022-08-04T20:28:54.732Z,62.34
2022-08-04T20:33:53.893Z,62.45
2022-08-04T20:36:04.722Z,63.04
2022-08-04T20:37:55.308Z,62.64
2022-08-04T20:39:15.800Z,63.04
2022-08-04T20:40:44.596Z,62.94
2022-08-04T20:42:13.614Z,62.74
2022-08-04T20:43:42.961Z,62.94
2022-08-04T20:46:40.114Z,63.13
2022-08-04T20:48:09.092Z,62.94
2022-08-04T20:49:38.175Z,63.24
2022-08-04T20:51:07.189Z,63.34
2022-08-04T20:52:36.222Z,63.04
2022-08-04T20:54:16.692Z,63.24
2022-08-04T20:57:02.526Z,63.34
2022-08-04T20:58:31.603Z,63.24
2022-08-04T21:00:00.703Z,63.54
2022-08-04T21:01:30.720Z,63.67
2022-08-04T21:05:15.095Z,63.46
2022-08-04T21:08:12.050Z,63.86
2022-08-04T21:09:49.873Z,63.67
2022-08-04T21:11:10.438Z,63.96
2022-08-04T21:13:08.514Z,63.96
2022-08-04T21:14:37.502Z,63.96
2022-08-04T21:17:07.118Z,64.36
2022-08-04T21:20:29.725Z,63.96
2022-08-04T21:21:58.820Z,64.16
2022-08-04T21:23:27.751Z,63.86
2022-08-04T21:25:28.084Z,64.06
2022-08-04T21:27:01.262Z,63.96
2022-08-04T21:29:48.301Z,63.76
2022-08-04T21:32:48.441Z,63.96
2022-08-04T21:34:39.122Z,63.96
2022-08-04T21:37:14.700Z,64.09
2022-08-04T21:39:50.366Z,64.29
2022-08-04T21:41:12.096Z,64.49
2022-08-04T21:42:42.757Z,64.39
2022-08-04T21:44:41.144Z,64.39
2022-08-04T21:46:44.325Z,64.39
2022-08-04T21:48:09.377Z,64.59
2022-08-04T21:51:06.453Z,64.39
2022-08-04T21:53:04.390Z,64.09
2022-08-04T21:54:33.375Z,64.42
2022-08-04T21:56:05.817Z,64.59
2022-08-04T21:58:01.202Z,64.49
2022-08-04T21:59:59.183Z,64.29
2022-08-04T22:02:55.738Z,64.39
2022-08-04T22:05:51.830Z,64.49
2022-08-04T22:08:19.750Z,64.59
2022-08-04T22:11:14.893Z,64.29
2022-08-04T22:13:12.891Z,64.59
2022-08-04T22:14:50.222Z,64.69
2022-08-04T22:17:13.730Z,64.49
2022-08-04T22:18:40.871Z,64.69
2022-08-04T22:20:38.865Z,65.81
2022-08-04T22:22:36.806Z,66.51
2022-08-04T22:24:08.639Z,67.40
2022-08-04T22:26:08.303Z,68.60
2022-08-04T22:27:37.475Z,68.99
2022-08-04T22:29:06.401Z,69.92
2022-08-04T22:31:56.090Z,70.52
2022-08-04T22:35:36.145Z,72.14
2022-08-04T22:36:59.089Z,72.34
2022-08-04T22:39:06.834Z,72.48
2022-08-04T22:40:27.256Z,73.47
2022-08-04T22:43:54.933Z,73.87
2022-08-04T22:45:28.753Z,74.21
2022-08-04T22:47:23.645Z,75.10
2022-08-04T22:49:18.564Z,75.90
2022-08-04T22:51:17.605Z,75.90
2022-08-04T22:54:13.864Z,75.74
2022-08-04T22:56:07.027Z,76.04
2022-08-04T22:58:11.364Z,75.54
2022-08-04T23:00:38.600Z,76.14
2022-08-04T23:02:36.879Z,76.04
2022-08-04T23:04:06.007Z,76.24
2022-08-04T23:05:35.744Z,76.43
2022-08-04T23:07:05.272Z,77.03
2022-08-04T23:08:34.222Z,76.64
2022-08-04T23:11:35.312Z,76.43
2022-08-04T23:13:05.628Z,76.17
2022-08-04T23:15:57.475Z,77.17
2022-08-04T23:18:24.723Z,76.57
2022-08-04T23:20:33.019Z,76.37
2022-08-04T23:23:20.268Z,76.81
2022-08-04T23:26:07.525Z,77.51
2022-08-04T23:27:17.501Z,77.04
2022-08-04T23:29:15.588Z,76.95
2022-08-04T23:32:11.625Z,76.84
2022-08-04T23:33:50.623Z,77.04
2022-08-04T23:35:39.991Z,77.04
2022-08-04T23:37:10.170Z,77.25
2022-08-04T23:38:38.399Z,77.38
2022-08-04T23:40:30.214Z,77.58
2022-08-04T23:41:53.502Z,77.58
2022-08-04T23:43:12.350Z,77.48
2022-08-04T23:45:07.891Z,77.48
2022-08-04T23:46:36.613Z,77.28
2022-08-04T23:48:15.192Z,77.08
2022-08-04T23:50:33.752Z,76.98
2022-08-04T23:52:31.765Z,77.08
2022-08-04T23:54:03.541Z,77.14
2022-08-04T23:58:53.404Z,77.68
